Flight Track Log - Related Links

Times and Time Zones

All times are in EDT time to prevent confusion due to time zone crossing. See the GJS3707 flight status page for this flight to view local times or setup timezone preferences in your user account.

Time Position Orientation Groundspeed Altitude Reporting Facility
EDT Latitude Longitude Course Direction KTS MPH feet Rate Location/Type
Tue 03:24:09 PM 43.5467 -116.1606 65° Northeast 175 201 4,900  Level Salt Lake Center
Tue 03:25:10 PM 43.5264 -116.0847 110° East 200 230 7,100 1,951 Climbing Salt Lake Center
Tue 03:26:12 PM 43.5300 -115.9892 87° East 266 306 8,900 1,984 Climbing Salt Lake Center
Tue 03:27:00 PM 43.6559 -115.5700 78° East  Level FlightAware Approximate
Tue 03:27:14 PM 43.5497 -115.8742 77° East 292 336 11,200  Level Salt Lake Center
Tue 03:28:00 PM 43.6754 -115.4043 83° East  Level FlightAware Approximate
Tue 03:28:16 PM 43.5700 -115.7494 77° East 314 361 12,800  Level Salt Lake Center
Tue 03:29:00 PM 43.6974 -115.2412 65° Northeast  Level FlightAware Approximate
Tue 03:29:18 PM 43.5931 -115.6069 77° East 360 414 14,800  Level Salt Lake Center
Tue 03:30:19 PM 43.6164 -115.4611 77° East 371 427 16,500 1,512 Climbing Salt Lake Center
Tue 03:31:21 PM 43.6383 -115.3183 78° East 392 451 17,900 1,597 Climbing Salt Lake Center
Tue 03:32:23 PM 43.6647 -115.1606 77° East 403 464 19,800 1,694 Climbing Salt Lake Center
Tue 03:33:25 PM 43.6906 -114.9939 78° East 412 474 21,400 1,355 Climbing Salt Lake Center
Tue 03:34:27 PM 43.7150 -114.8383 78° East 430 495 22,600 1,171 Climbing Salt Lake Center
Tue 03:35:28 PM 43.7433 -114.6544 78° East 440 506 23,800 1,171 Climbing Salt Lake Center
Tue 03:36:30 PM 43.7672 -114.4947 78° East 444 511 25,000 1,016 Climbing Salt Lake Center
Tue 03:37:32 PM 43.7928 -114.3322 78° East 450 518 25,900 1,016 Climbing Salt Lake Center
Tue 03:38:34 PM 43.8217 -114.1372 78° East 464 534 27,100 1,016 Climbing Salt Lake Center
Tue 03:39:36 PM 43.8458 -113.9700 79° East 465 535 28,000 976 Climbing Salt Lake Center
Tue 03:40:37 PM 43.8747 -113.7708 79° East 474 545 29,100 1,073 Climbing Salt Lake Center
Tue 03:41:39 PM 43.8992 -113.6033 78° East 464 534 30,200 871 Climbing Salt Lake Center
Tue 03:42:41 PM 43.9256 -113.4014 80° East 475 547 30,900 629 Climbing Salt Lake Center
Tue 03:43:43 PM 43.9503 -113.2253 79° East 483 556 31,500 780 Climbing Salt Lake Center
Tue 03:44:44 PM 43.9781 -113.0217 79° East 482 555 32,500 878 Climbing Salt Lake Center
Tue 03:45:46 PM 44.0017 -112.8467 79° East 483 556 33,300 774 Climbing Salt Lake Center
Tue 03:46:48 PM 44.0264 -112.6728 79° East 481 554 34,100 780 Climbing Salt Lake Center
Tue 03:47:49 PM 44.0539 -112.4700 79° East 480 552 34,900 439 Climbing Salt Lake Center
Tue 03:48:51 PM 44.0767 -112.2931 80° East 484 557 35,000 48 Climbing Salt Lake Center
Tue 03:49:53 PM 44.0889 -112.0814 85° East 493 567 35,000  Level Salt Lake Center
Tue 03:50:54 PM 44.0911 -111.9000 89° East 493 567 35,000  Level Salt Lake Center
Tue 03:51:56 PM 44.0925 -111.6842 89° East 502 578 35,000  Level Salt Lake Center
Tue 03:52:58 PM 44.0939 -111.4997 89° East 502 578 35,000  Level Salt Lake Center
Tue 03:53:59 PM 44.0939 -111.2858 90° East 500 575 35,000  Level Salt Lake Center
Tue 03:55:01 PM 44.0939 -111.1031 90° East 499 574 35,000  Level Salt Lake Center
Tue 03:56:02 PM 44.0931 -110.8892 90° East 498 573 35,000  Level Salt Lake Center
Tue 03:57:04 PM 44.0933 -110.7056 90° East 499 574 35,000  Level Salt Lake Center
Tue 03:58:06 PM 44.0936 -110.5192 90° East 505 581 35,000  Level Salt Lake Center
Tue 03:59:07 PM 44.0914 -110.3047 91° East 500 575 35,000  Level Salt Lake Center
Tue 04:00:09 PM 44.0903 -110.1200 90° East 500 575 35,000  Level Salt Lake Center
Tue 04:01:10 PM 44.0886 -109.9036 91° East 501 577 35,000  Level Salt Lake Center
Tue 04:02:12 PM 44.0872 -109.7203 91° East 496 571 35,000  Level Salt Lake Center
Tue 04:03:13 PM 44.0914 -109.5069 88° East 496 571 35,000  Level Salt Lake Center
Tue 04:04:15 PM 44.0944 -109.3361 89° East 492 566 35,000  Level Salt Lake Center
Tue 04:05:16 PM 44.0983 -109.1228 88° East 494 568 35,000  Level Salt Lake Center
Tue 04:06:18 PM 44.1019 -108.9414 88° East 491 565 35,000  Level Salt Lake Center
Tue 04:07:19 PM 44.1042 -108.7314 89° East 487 560 35,000  Level Salt Lake Center
Tue 04:08:21 PM 44.1072 -108.5517 89° East 487 560 35,000  Level Salt Lake Center
Tue 04:09:22 PM 44.1092 -108.3733 89° East 484 557 35,000  Level Salt Lake Center
Tue 04:10:24 PM 44.1106 -108.1636 89° East 487 560 35,000  Level Salt Lake Center
Tue 04:11:25 PM 44.1122 -107.9864 89° East 483 556 35,000  Level Salt Lake Center
Tue 04:12:27 PM 44.1147 -107.7794 89° East 482 555 35,000  Level Salt Lake Center
Tue 04:13:28 PM 44.1156 -107.6069 90° East 472 543 35,000  Level Salt Lake Center
Tue 04:14:30 PM 44.1156 -107.4042 90° East 472 543 35,000  Level Salt Lake Center
Tue 04:15:31 PM 44.1158 -107.2306 90° East 471 542 35,000  Level Salt Lake Center
Tue 04:16:30 PM 44.1158 -107.0572 90° East 466 536 35,000  Level Denver Center
Tue 04:17:31 PM 44.1158 -106.8508 90° East 468 539 35,000  Level Denver Center
Tue 04:18:33 PM 44.1153 -106.6781 90° East 465 535 35,000  Level Denver Center
Tue 04:19:35 PM 44.1147 -106.5058 90° East 464 534 35,000  Level Denver Center
Tue 04:20:39 PM 44.1142 -106.3086 90° East 470 541 35,000  Level Salt Lake Center
Tue 04:21:40 PM 44.1150 -106.1283 90° East 470 541 35,000  Level Salt Lake Center
Tue 04:22:40 PM 44.1125 -105.9258 91° East 470 541 35,000  Level Denver Center
Tue 04:23:42 PM 44.1092 -105.7544 91° East 466 536 35,000  Level Denver Center
Tue 04:24:44 PM 44.1072 -105.5525 91° East 467 537 35,000  Level Denver Center
Tue 04:25:45 PM 44.1036 -105.3797 92° East 465 535 35,000  Level Denver Center
Tue 04:26:47 PM 44.1025 -105.2053 90° East 468 539 35,000  Level Denver Center
Tue 04:27:49 PM 44.0983 -105.0050 92° East 465 535 35,000  Level Denver Center
Tue 04:28:51 PM 44.0953 -104.8308 91° East 468 539 35,000  Level Denver Center
Tue 04:29:52 PM 44.0906 -104.6289 92° East 467 537 35,000  Level Denver Center
Tue 04:30:54 PM 44.0864 -104.4544 92° East 469 540 35,000  Level Denver Center
Tue 04:31:56 PM 44.0831 -104.2800 91° East 471 542 35,000  Level Denver Center
Tue 04:32:58 PM 44.0764 -104.0781 93° East 471 542 35,000  Level Denver Center
Tue 04:33:59 PM 44.0717 -103.9039 92° East 471 542 35,000  Level Denver Center
Tue 04:35:01 PM 44.0672 -103.7003 92° East 472 543 35,000  Level Denver Center
Tue 04:36:03 PM 44.0614 -103.5250 93° East 475 547 35,000  Level Denver Center
Tue 04:37:05 PM 44.0542 -103.3214 93° East 473 544 35,000  Level Denver Center
Tue 04:38:06 PM 44.0497 -103.1478 92° East 470 541 35,000  Level Denver Center
Tue 04:39:08 PM 44.0433 -102.9742 93° East 470 541 35,000  Level Denver Center
Tue 04:40:10 PM 44.0364 -102.7747 93° East 472 543 35,000  Level Denver Center
Tue 04:41:12 PM 44.0283 -102.5894 93° East 479 551 35,000  Level Denver Center
Tue 04:42:14 PM 44.0206 -102.4042 93° East 480 552 35,000  Level Denver Center
Tue 04:43:15 PM 44.0111 -102.2178 94° East 483 556 35,000  Level Denver Center
Tue 04:44:17 PM 43.9997 -101.9947 94° East 484 557 35,000  Level Denver Center
Tue 04:45:19 PM 43.9903 -101.8086 94° East 484 557 35,000  Level Denver Center
Tue 04:46:21 PM 43.9853 -101.6269 92° East 478 550 35,000  Level Denver Center
Tue 04:47:26 PM 43.9756 -101.4403 94° East 484 557 35,000  Level Minneapolis Center
Tue 04:48:28 PM 43.9669 -101.2544 94° East 484 557 35,000  Level Minneapolis Center
Tue 04:49:30 PM 43.9556 -101.0322 94° East 484 557 35,000  Level Minneapolis Center
Tue 04:50:32 PM 43.9461 -100.8461 94° East 484 557 35,000  Level Minneapolis Center
Tue 04:51:34 PM 43.9356 -100.6617 94° East 483 556 35,000 48 Level Minneapolis Center
Tue 04:52:36 PM 43.9247 -100.4733 95° East 487 560 35,100  Climbing Minneapolis Center
Tue 04:53:39 PM 43.9122 -100.2856 95° East 491 565 35,000 -48 Descending Minneapolis Center
Tue 04:54:41 PM 43.8994 -100.0647 95° East 484 557 35,000  Level Minneapolis Center
Tue 04:55:43 PM 43.8886 -99.8811 95° East 482 555 35,000  Level Minneapolis Center
Tue 04:56:45 PM 43.8761 -99.6961 95° East 483 556 35,000  Level Minneapolis Center
Tue 04:57:47 PM 43.8639 -99.5111 95° East 484 557 35,000  Level Minneapolis Center
Tue 04:58:49 PM 43.8519 -99.3269 95° East 483 556 35,000  Level Minneapolis Center
Tue 04:59:51 PM 43.8378 -99.1425 96° East 483 556 35,000  Level Minneapolis Center
Tue 05:00:53 PM 43.8231 -98.9194 95° East 486 559 35,000  Level Minneapolis Center
Tue 05:01:55 PM 43.8100 -98.7347 96° East 485 558 35,000  Level Minneapolis Center
Tue 05:02:57 PM 43.7956 -98.5414 96° East 490 564 35,000  Level Minneapolis Center
Tue 05:03:59 PM 43.7814 -98.3578 96° East 485 558 35,000  Level Minneapolis Center
Tue 05:05:02 PM 43.7669 -98.1717 96° East 487 560 35,000  Level Minneapolis Center
Tue 05:06:04 PM 43.7494 -97.9853 97° East 489 563 35,000  Level Minneapolis Center
Tue 05:07:06 PM 43.7294 -97.7644 97° East 486 559 35,000  Level Minneapolis Center
Tue 05:08:08 PM 43.7117 -97.5792 97° East 489 563 35,000  Level Minneapolis Center
Tue 05:09:10 PM 43.6944 -97.3956 97° East 486 559 35,000  Level Minneapolis Center
Tue 05:10:12 PM 43.6753 -97.2106 98° East 489 563 35,000  Level Minneapolis Center
Tue 05:11:14 PM 43.6575 -97.0258 98° East 489 563 35,000  Level Minneapolis Center
Tue 05:12:15 PM 43.6386 -96.8411 98° East 491 565 35,000  Level Minneapolis Center
Tue 05:13:17 PM 43.6153 -96.6203 98° East 489 563 35,000  Level Minneapolis Center
Tue 05:14:19 PM 43.5964 -96.4367 98° East 488 562 35,000  Level Minneapolis Center
Tue 05:15:21 PM 43.5769 -96.2533 98° East 487 560 35,000  Level Minneapolis Center
Tue 05:16:23 PM 43.5572 -96.0697 98° East 489 563 35,000  Level Minneapolis Center
Tue 05:17:25 PM 43.5367 -95.8867 99° East 488 562 35,000  Level Minneapolis Center
Tue 05:18:27 PM 43.5117 -95.6650 99° East 491 565 35,000  Level Minneapolis Center
Tue 05:19:29 PM 43.4914 -95.4800 99° East 493 567 35,000  Level Minneapolis Center
Tue 05:20:31 PM 43.4692 -95.2947 99° East 492 566 35,000  Level Minneapolis Center
Tue 05:21:33 PM 43.4467 -95.1083 99° East 496 571 35,000  Level Minneapolis Center
Tue 05:22:35 PM 43.4239 -94.9186 99° East 505 581 35,000  Level Minneapolis Center
Tue 05:23:37 PM 43.4008 -94.7286 99° East 507 583 35,000  Level Minneapolis Center
Tue 05:24:39 PM 43.3731 -94.5006 99° East 507 583 35,000  Level Minneapolis Center
Tue 05:25:41 PM 43.3497 -94.3106 100° East 508 585 35,000  Level Minneapolis Center
Tue 05:26:43 PM 43.3256 -94.1339 101° East 511 588 35,000  Level Minneapolis Center
Tue 05:27:45 PM 43.3014 -93.9442 100° East 511 588 35,000  Level Minneapolis Center
Tue 05:28:47 PM 43.2722 -93.7158 100° East 512 589 35,000  Level Minneapolis Center
Tue 05:29:49 PM 43.2478 -93.5247 100° East 514 592 35,000  Level Minneapolis Center
Tue 05:30:51 PM 43.2217 -93.3331 101° East 516 594 35,000  Level Minneapolis Center
Tue 05:31:53 PM 43.1956 -93.1414 101° East 517 595 35,000  Level Minneapolis Center
Tue 05:32:55 PM 43.1692 -92.9472 100° East 521 600 35,000  Level Minneapolis Center
Tue 05:33:57 PM 43.1369 -92.7147 101° East 522 601 35,000  Level Minneapolis Center
Tue 05:34:32 PM 43.1183 -92.6000 102° East 521 600 35,000 -433 Level Chicago Center
Tue 05:35:34 PM 43.0911 -92.4039 101° East 527 606 34,300 -750 Descending Chicago Center
Tue 05:36:00 PM 43.0808 -92.3267 100° East 525 604 33,900 -871 Descending Minneapolis Center
Tue 05:36:36 PM 43.0631 -92.2064 101° East 533 613 33,400 -857 Descending Chicago Center
Tue 05:37:38 PM 43.0350 -92.0081 101° East 535 616 32,500 -871 Descending Chicago Center
Tue 05:38:40 PM 43.0064 -91.8106 101° East 531 611 31,600 -726 Descending Chicago Center
Tue 05:39:42 PM 42.9767 -91.6114 101° East 530 610 31,000 -409 Descending Chicago Center
Tue 05:40:08 PM 42.9664 -91.5336 100° East 525 604 31,000 -409 Level Minneapolis Center
Tue 05:41:10 PM 42.9461 -91.3058 97° East 504 580 30,400 -735 Descending Minneapolis Center
Tue 05:41:46 PM 42.9319 -91.2022 101° East 477 549 29,800 -857 Descending Chicago Center
Tue 05:42:48 PM 42.9022 -91.0272 103° East 475 547 29,000 -484 Descending Chicago Center
Tue 05:43:50 PM 42.8731 -90.8539 103° East 470 541 28,800 -816 Descending Chicago Center
Tue 05:44:53 PM 42.8419 -90.6817 104° East 471 542 27,300 -1,680 Descending Chicago Center
Tue 05:45:55 PM 42.8117 -90.5119 104° East 466 536 25,300 -1,597 Descending Chicago Center
Tue 05:46:57 PM 42.7769 -90.3206 104° East 444 511 24,000 -629 Descending Chicago Center
Tue 05:47:59 PM 42.7486 -90.1600 103° East 438 504 24,000 -194 Level Chicago Center
Tue 05:49:01 PM 42.7186 -89.9925 104° East 454 522 23,600 -1,065 Descending Chicago Center
Tue 05:50:03 PM 42.6892 -89.8244 103° East 441 507 21,800 -1,694 Descending Chicago Center
Tue 05:51:05 PM 42.6622 -89.6678 103° East 428 493 20,100 -1,887 Descending Chicago Center
Tue 05:52:07 PM 42.6289 -89.4889 104° East 421 484 17,900 -1,887 Descending Chicago Center
Tue 05:53:09 PM 42.6014 -89.3397 104° East 412 474 16,200 -1,548 Descending Chicago Center
Tue 05:54:11 PM 42.5736 -89.1950 105° East 403 464 14,700 -1,344 Descending Chicago Center
Tue 05:55:14 PM 42.5428 -89.0586 107° East 384 442 13,400 -1,248 Descending Chicago Center
Tue 05:56:16 PM 42.5047 -88.9283 112° Southeast 375 432 12,100 -1,161 Descending Chicago Center
Tue 05:57:18 PM 42.4603 -88.7806 112° Southeast 365 420 11,000 -871 Descending Chicago Center
Tue 05:58:20 PM 42.4247 -88.6614 112° Southeast 340 391 10,300 -823 Descending Chicago Center
Tue 05:59:22 PM 42.3914 -88.5542 113° Southeast 313 360 9,300 -629 Descending Chicago Center
Tue 06:00:24 PM 42.3597 -88.4489 112° Southeast 305 351 9,000 -532 Descending Chicago Center
Tue 06:01:26 PM 42.3350 -88.3494 109° East 285 328 8,200 -968 Descending Chicago Center
Tue 06:02:28 PM 42.2814 -88.2661 131° Southeast 257 296 7,000 -581 Descending Chicago Center
Tue 06:03:30 PM 42.2311 -88.2078 139° Southeast 244 281 7,000 -576 Level Chicago Center
Tue 06:04:33 PM 42.1794 -88.1483 140° Southeast 244 281 5,800 -1,258 Descending Chicago Center
Tue 06:05:34 PM 42.1303 -88.0922 140° Southeast 237 273 4,400 -1,377 Descending Chicago Center

Login

Don't have an account? Register now (free) for customized features, flight alerts, and more!